createdAt,value
2022-08-02T00:00:08.653Z,48.31
2022-08-02T00:02:35.015Z,48.51
2022-08-02T00:05:01.374Z,48.47
2022-08-02T00:07:27.725Z,48.42
2022-08-02T00:09:54.079Z,48.50
2022-08-02T00:12:20.434Z,48.37
2022-08-02T00:14:46.785Z,48.53
2022-08-02T00:17:13.137Z,48.12
2022-08-02T00:19:39.495Z,48.17
2022-08-02T00:22:05.865Z,48.18
2022-08-02T00:24:32.233Z,48.30
2022-08-02T00:26:58.682Z,48.13
2022-08-02T00:29:25.030Z,48.25
2022-08-02T00:31:51.406Z,48.13
2022-08-02T00:34:28.406Z,48.10
2022-08-02T00:36:57.437Z,48.10
2022-08-02T00:39:34.627Z,48.31
2022-08-02T00:42:01.844Z,48.06
2022-08-02T00:44:28.196Z,48.01
2022-08-02T00:46:54.567Z,48.24
2022-08-02T00:49:21.346Z,48.01
2022-08-02T00:51:47.908Z,47.99
2022-08-02T00:54:14.791Z,48.38
2022-08-02T00:56:41.184Z,48.38
2022-08-02T00:59:17.467Z,48.18
2022-08-02T01:01:57.629Z,47.99
2022-08-02T01:04:26.835Z,48.08
2022-08-02T01:06:58.077Z,48.31
2022-08-02T01:09:24.455Z,48.34
2022-08-02T01:11:50.829Z,48.28
2022-08-02T01:14:17.189Z,47.97
2022-08-02T01:16:46.247Z,48.20
2022-08-02T01:19:33.533Z,48.11
2022-08-02T01:22:05.472Z,48.12
2022-08-02T01:24:44.137Z,48.22
2022-08-02T01:27:21.333Z,48.23
2022-08-02T01:29:49.319Z,48.26
2022-08-02T01:32:16.653Z,48.43
2022-08-02T01:34:47.338Z,48.42
2022-08-02T01:37:16.076Z,48.62
2022-08-02T01:39:42.705Z,48.73
2022-08-02T01:42:09.390Z,48.71
2022-08-02T01:44:36.169Z,48.49
2022-08-02T01:47:03.927Z,48.49
2022-08-02T01:49:30.793Z,48.30
2022-08-02T01:52:15.918Z,48.59
2022-08-02T01:54:42.275Z,48.53
2022-08-02T01:57:09.039Z,48.57
2022-08-02T01:59:35.390Z,48.47
2022-08-02T02:02:01.949Z,48.46
2022-08-02T02:04:29.135Z,48.46
2022-08-02T02:06:56.056Z,48.63
2022-08-02T02:09:22.406Z,48.64
2022-08-02T02:12:06.174Z,48.26
2022-08-02T02:14:35.172Z,48.41
2022-08-02T02:17:01.549Z,48.46
2022-08-02T02:19:27.948Z,48.59
2022-08-02T02:21:54.306Z,48.48
2022-08-02T02:24:20.826Z,48.61
2022-08-02T02:26:52.052Z,48.75
2022-08-02T02:29:19.291Z,48.71
2022-08-02T02:31:45.875Z,48.35
2022-08-02T02:34:14.207Z,48.62
2022-08-02T02:36:41.353Z,48.75
2022-08-02T02:39:13.094Z,48.41
2022-08-02T02:41:40.046Z,48.32
2022-08-02T02:44:06.658Z,48.48
2022-08-02T02:46:33.040Z,48.50
2022-08-02T02:48:59.466Z,48.31
2022-08-02T02:51:25.881Z,48.38
2022-08-02T02:54:30.060Z,48.45
2022-08-02T02:56:38.593Z,48.34
2022-08-02T02:59:05.006Z,48.36
2022-08-02T03:01:56.055Z,48.53
2022-08-02T03:04:17.732Z,48.30
2022-08-02T03:06:44.104Z,48.28
2022-08-02T03:09:10.461Z,48.17
2022-08-02T03:11:38.019Z,48.18
2022-08-02T03:14:04.659Z,48.16
2022-08-02T03:16:31.157Z,47.99
2022-08-02T03:18:57.725Z,48.06
2022-08-02T03:21:24.097Z,47.97
2022-08-02T03:23:50.595Z,47.92
2022-08-02T03:26:17.021Z,48.09
2022-08-02T03:28:44.345Z,47.85
2022-08-02T03:31:10.896Z,47.96
2022-08-02T03:33:37.259Z,47.69
2022-08-02T03:36:08.511Z,47.84
2022-08-02T03:38:34.879Z,47.73
2022-08-02T03:41:01.540Z,47.76
2022-08-02T03:43:28.792Z,47.57
2022-08-02T03:45:55.350Z,47.67
2022-08-02T03:48:30.585Z,47.45
2022-08-02T03:51:00.897Z,47.47
2022-08-02T03:53:27.322Z,47.46
2022-08-02T03:55:55.833Z,47.49
2022-08-02T03:58:22.553Z,47.45
2022-08-02T04:00:48.938Z,47.44
2022-08-02T04:03:20.083Z,47.30
2022-08-02T04:06:00.926Z,47.09
2022-08-02T04:08:35.059Z,47.28
2022-08-02T04:11:22.725Z,47.32
2022-08-02T04:13:49.108Z,47.10
2022-08-02T04:16:18.693Z,46.92
2022-08-02T04:18:46.275Z,46.95
2022-08-02T04:21:13.644Z,46.87
2022-08-02T04:23:40.004Z,47.10
2022-08-02T04:26:07.961Z,47.05
2022-08-02T04:28:37.195Z,46.81
2022-08-02T04:31:03.584Z,46.84
2022-08-02T04:33:29.993Z,46.97
2022-08-02T04:35:59.843Z,46.77
2022-08-02T04:38:26.599Z,47.08
2022-08-02T04:40:53.951Z,46.72
2022-08-02T04:43:20.315Z,47.13
2022-08-02T04:45:47.151Z,47.00
2022-08-02T04:48:13.517Z,47.00
2022-08-02T04:50:39.875Z,46.91
2022-08-02T04:53:06.290Z,46.84
2022-08-02T04:55:32.657Z,46.61
2022-08-02T04:57:59.196Z,46.67
2022-08-02T05:00:25.882Z,46.88
2022-08-02T05:02:52.636Z,47.01
2022-08-02T05:05:19.006Z,47.02
2022-08-02T05:07:45.365Z,46.74
2022-08-02T05:10:11.735Z,46.95
2022-08-02T05:12:38.738Z,48.01
2022-08-02T05:15:05.284Z,48.02
2022-08-02T05:17:31.650Z,48.35
2022-08-02T05:19:58.029Z,48.48
2022-08-02T05:22:24.463Z,48.05
2022-08-02T05:24:50.880Z,48.17
2022-08-02T05:27:21.459Z,48.46
2022-08-02T05:29:53.531Z,48.07
2022-08-02T05:32:20.554Z,48.31
2022-08-02T05:34:50.077Z,48.18
2022-08-02T05:37:16.867Z,48.43
2022-08-02T05:39:55.019Z,48.66
2022-08-02T05:42:22.705Z,50.16
2022-08-02T05:44:49.081Z,50.39
2022-08-02T05:47:15.506Z,50.29
2022-08-02T05:49:41.986Z,50.04
2022-08-02T05:52:08.592Z,50.81
2022-08-02T05:54:39.419Z,49.92
2022-08-02T05:57:07.147Z,49.92
2022-08-02T05:59:53.702Z,50.13
2022-08-02T06:02:30.656Z,49.87
2022-08-02T06:05:04.471Z,50.42
2022-08-02T06:07:31.079Z,50.58
2022-08-02T06:09:59.647Z,49.95
2022-08-02T06:12:26.315Z,49.97
2022-08-02T06:14:54.550Z,50.69
2022-08-02T06:17:21.006Z,50.63
2022-08-02T06:19:52.019Z,51.02
2022-08-02T06:22:37.545Z,51.03
2022-08-02T06:25:04.877Z,49.14
2022-08-02T06:27:31.335Z,49.26
2022-08-02T06:29:57.751Z,48.63
2022-08-02T06:32:24.103Z,48.30
2022-08-02T06:34:50.530Z,48.39
2022-08-02T06:37:42.992Z,48.40
2022-08-02T06:40:14.567Z,48.07
2022-08-02T06:42:59.616Z,48.27
2022-08-02T06:45:25.995Z,47.59
2022-08-02T06:47:52.383Z,47.23
2022-08-02T06:50:18.818Z,47.38
2022-08-02T06:52:45.190Z,47.36
2022-08-02T06:55:11.552Z,47.05
2022-08-02T06:57:37.931Z,46.83
2022-08-02T07:00:08.529Z,47.01
2022-08-02T07:02:37.831Z,46.79
2022-08-02T07:05:04.290Z,46.63
2022-08-02T07:07:30.655Z,46.89
2022-08-02T07:10:01.386Z,46.88
2022-08-02T07:12:28.631Z,47.25
2022-08-02T07:14:55.014Z,47.11
2022-08-02T07:17:21.410Z,46.85
2022-08-02T07:19:47.813Z,46.68
2022-08-02T07:22:14.295Z,46.33
2022-08-02T07:24:40.814Z,46.51
2022-08-02T07:27:12.018Z,45.94
2022-08-02T07:29:46.899Z,47.16
2022-08-02T07:32:20.146Z,46.35
2022-08-02T07:34:53.010Z,46.85
2022-08-02T07:37:53.195Z,46.44
2022-08-02T07:40:13.784Z,46.19
2022-08-02T07:42:42.279Z,46.47
2022-08-02T07:45:08.734Z,45.79
2022-08-02T07:47:38.767Z,45.74
2022-08-02T07:50:05.226Z,45.84
2022-08-02T07:52:31.572Z,45.75
2022-08-02T07:54:57.943Z,45.94
2022-08-02T07:57:25.235Z,46.15
2022-08-02T07:59:51.708Z,46.28
2022-08-02T08:02:18.059Z,46.21
2022-08-02T08:04:44.431Z,45.82
2022-08-02T08:07:11.813Z,46.00
2022-08-02T08:09:42.084Z,45.95
2022-08-02T08:12:09.313Z,45.99
2022-08-02T08:14:36.109Z,45.65
2022-08-02T08:17:02.495Z,45.41
2022-08-02T08:19:50.303Z,45.27
2022-08-02T08:22:15.384Z,45.54
2022-08-02T08:24:41.740Z,45.76
2022-08-02T08:27:14.338Z,46.20
2022-08-02T08:29:41.849Z,45.28
2022-08-02T08:32:09.387Z,45.39
2022-08-02T08:34:40.755Z,45.42
2022-08-02T08:37:07.105Z,45.76
2022-08-02T08:39:33.467Z,45.78
2022-08-02T08:41:59.823Z,45.92
2022-08-02T08:44:27.259Z,46.08
2022-08-02T08:46:53.623Z,45.82
2022-08-02T08:49:26.618Z,45.73
2022-08-02T08:51:54.609Z,46.13
2022-08-02T08:54:20.972Z,46.37
2022-08-02T08:56:47.317Z,46.38
2022-08-02T08:59:13.703Z,46.30
2022-08-02T09:01:50.695Z,46.65
2022-08-02T09:04:18.103Z,45.99
2022-08-02T09:06:44.455Z,45.10
2022-08-02T09:09:10.818Z,46.23
2022-08-02T09:11:37.196Z,46.09
2022-08-02T09:14:03.555Z,45.73
2022-08-02T09:16:36.449Z,46.07
2022-08-02T09:19:17.550Z,45.69
2022-08-02T09:21:43.903Z,45.25
2022-08-02T09:24:17.604Z,45.06
2022-08-02T09:26:44.091Z,45.24
2022-08-02T09:29:11.087Z,45.13
2022-08-02T09:31:37.437Z,45.24
2022-08-02T09:34:04.579Z,45.36
2022-08-02T09:36:40.505Z,45.95
2022-08-02T09:39:07.525Z,45.43
2022-08-02T09:41:34.541Z,45.76
2022-08-02T09:44:04.380Z,46.57
2022-08-02T09:46:33.446Z,46.06
2022-08-02T09:49:00.538Z,45.92
2022-08-02T09:51:27.935Z,46.23
2022-08-02T09:54:08.014Z,46.24
2022-08-02T09:56:44.319Z,46.41
2022-08-02T09:59:10.793Z,47.10
2022-08-02T10:01:39.014Z,47.40
2022-08-02T10:04:14.528Z,47.44
2022-08-02T10:06:47.611Z,46.93
2022-08-02T10:09:13.983Z,47.18
2022-08-02T10:11:40.939Z,46.95
2022-08-02T10:14:07.653Z,46.30
2022-08-02T10:16:34.543Z,46.44
2022-08-02T10:19:02.297Z,46.85
2022-08-02T10:21:46.777Z,47.08
2022-08-02T10:24:14.418Z,45.69
2022-08-02T10:26:41.992Z,45.60
2022-08-02T10:29:09.364Z,45.30
2022-08-02T10:31:38.916Z,44.64
2022-08-02T10:34:07.135Z,44.61
2022-08-02T10:36:33.784Z,44.33
2022-08-02T10:39:01.117Z,45.88
2022-08-02T10:41:43.081Z,46.31
2022-08-02T10:44:24.380Z,46.94
2022-08-02T10:46:51.637Z,47.14
2022-08-02T10:49:39.290Z,46.93
2022-08-02T10:52:06.558Z,47.09
2022-08-02T10:54:34.076Z,47.03
2022-08-02T10:57:01.315Z,47.18
2022-08-02T10:59:28.904Z,47.17
2022-08-02T11:02:01.216Z,47.58
2022-08-02T11:04:28.651Z,46.99
2022-08-02T11:07:07.997Z,47.37
2022-08-02T11:09:34.361Z,47.45
2022-08-02T11:12:01.407Z,47.78
2022-08-02T11:14:27.767Z,47.67
2022-08-02T11:16:57.114Z,48.03
2022-08-02T11:19:26.630Z,48.33
2022-08-02T11:22:02.366Z,48.09
2022-08-02T11:24:32.350Z,48.62
2022-08-02T11:26:59.458Z,48.43
2022-08-02T11:29:32.712Z,47.87
2022-08-02T11:32:05.169Z,47.95
2022-08-02T11:34:37.614Z,48.03
2022-08-02T11:37:04.667Z,48.19
2022-08-02T11:39:31.083Z,47.73
2022-08-02T11:41:58.845Z,48.18
2022-08-02T11:44:28.827Z,48.24
2022-08-02T11:46:55.852Z,48.24
2022-08-02T11:49:22.309Z,48.25
2022-08-02T11:52:00.428Z,48.41
2022-08-02T11:54:27.827Z,48.45
2022-08-02T11:56:54.195Z,48.57
2022-08-02T11:59:20.582Z,48.10
2022-08-02T12:01:46.994Z,48.62
2022-08-02T12:04:16.126Z,48.57
2022-08-02T12:06:42.505Z,48.52
2022-08-02T12:09:17.975Z,49.15
2022-08-02T12:11:45.057Z,48.79
2022-08-02T12:14:11.432Z,48.91
2022-08-02T12:16:58.245Z,48.53
2022-08-02T12:19:26.695Z,48.48
2022-08-02T12:22:09.471Z,48.79
2022-08-02T12:24:36.322Z,49.07
2022-08-02T12:27:02.721Z,48.87
2022-08-02T12:29:57.943Z,48.95
2022-08-02T12:32:23.354Z,49.19
2022-08-02T12:35:00.159Z,49.29
2022-08-02T12:37:26.546Z,49.31
2022-08-02T12:39:53.937Z,49.56
2022-08-02T12:42:20.289Z,49.26
2022-08-02T12:44:53.348Z,49.14
2022-08-02T12:47:21.452Z,49.20
2022-08-02T12:50:08.043Z,48.87
2022-08-02T12:52:34.437Z,48.87
2022-08-02T12:55:00.803Z,48.87
2022-08-02T12:57:27.163Z,48.32
2022-08-02T12:59:53.621Z,48.39
2022-08-02T13:02:21.048Z,48.36
2022-08-02T13:04:49.700Z,48.75
2022-08-02T13:07:17.134Z,48.53
2022-08-02T13:09:48.119Z,48.34
2022-08-02T13:12:14.923Z,48.29
2022-08-02T13:14:42.592Z,48.16
2022-08-02T13:17:09.786Z,48.03
2022-08-02T13:19:36.807Z,48.36
2022-08-02T13:22:03.975Z,48.49
2022-08-02T13:24:41.230Z,48.61
2022-08-02T13:27:17.093Z,49.18
2022-08-02T13:29:43.463Z,48.55
2022-08-02T13:32:10.316Z,48.77
2022-08-02T13:34:36.896Z,48.76
2022-08-02T13:37:03.432Z,49.38
2022-08-02T13:39:29.786Z,48.80
2022-08-02T13:41:56.148Z,49.08
2022-08-02T13:44:22.532Z,49.05
2022-08-02T13:46:48.908Z,49.02
2022-08-02T13:49:19.517Z,48.90
2022-08-02T13:51:46.923Z,48.68
2022-08-02T13:54:13.544Z,48.76
2022-08-02T13:56:39.937Z,48.88
2022-08-02T13:59:55.828Z,48.99
2022-08-02T14:01:53.225Z,49.05
2022-08-02T14:04:19.647Z,48.88
2022-08-02T14:06:46.061Z,48.96
2022-08-02T14:09:15.768Z,49.29
2022-08-02T14:11:43.662Z,49.27
2022-08-02T14:14:16.287Z,49.38
2022-08-02T14:16:43.249Z,49.47
2022-08-02T14:19:10.830Z,49.31
2022-08-02T14:21:46.601Z,49.24
2022-08-02T14:24:17.359Z,48.98
2022-08-02T14:26:44.117Z,48.95
2022-08-02T14:29:12.117Z,49.32
2022-08-02T14:31:43.679Z,48.97
2022-08-02T14:34:10.950Z,49.22
2022-08-02T14:36:37.569Z,48.70
2022-08-02T14:39:03.968Z,48.92
2022-08-02T14:41:33.653Z,48.72
2022-08-02T14:44:05.995Z,49.07
2022-08-02T14:46:32.725Z,49.22
2022-08-02T14:49:02.156Z,49.22
2022-08-02T14:51:29.372Z,49.08
2022-08-02T14:54:02.812Z,49.53
2022-08-02T14:56:29.711Z,49.08
2022-08-02T14:58:56.064Z,49.01
2022-08-02T15:01:26.258Z,49.08
2022-08-02T15:03:52.802Z,49.38
2022-08-02T15:06:19.207Z,49.08
2022-08-02T15:08:45.575Z,49.34
2022-08-02T15:11:12.037Z,49.22
2022-08-02T15:13:41.120Z,49.30
2022-08-02T15:16:09.182Z,49.65
2022-08-02T15:18:35.544Z,49.35
2022-08-02T15:21:08.032Z,49.19
2022-08-02T15:23:48.304Z,49.35
2022-08-02T15:26:14.675Z,49.32
2022-08-02T15:28:41.025Z,49.16
2022-08-02T15:31:07.415Z,49.33
2022-08-02T15:33:33.830Z,49.54
2022-08-02T15:36:00.197Z,49.59
2022-08-02T15:38:26.567Z,49.84
2022-08-02T15:40:52.926Z,49.15
2022-08-02T15:43:19.339Z,49.67
2022-08-02T15:45:45.722Z,49.57
2022-08-02T15:48:12.123Z,49.98
2022-08-02T15:50:38.550Z,49.82
2022-08-02T15:53:04.913Z,49.91
2022-08-02T15:55:39.953Z,50.15
2022-08-02T15:58:17.978Z,49.99
2022-08-02T16:00:48.787Z,49.85
2022-08-02T16:03:15.171Z,49.79
2022-08-02T16:05:41.606Z,50.04
2022-08-02T16:08:08.251Z,50.32
2022-08-02T16:10:34.622Z,49.88
2022-08-02T16:13:52.606Z,49.85
2022-08-02T16:16:20.868Z,49.76
2022-08-02T16:18:47.361Z,49.69
2022-08-02T16:21:13.990Z,49.65
2022-08-02T16:24:01.891Z,49.71
2022-08-02T16:26:29.162Z,49.71
2022-08-02T16:28:55.845Z,49.48
2022-08-02T16:31:22.235Z,49.84
2022-08-02T16:33:48.614Z,49.93
2022-08-02T16:36:14.994Z,49.67
2022-08-02T16:38:46.048Z,49.80
2022-08-02T16:41:12.462Z,49.95
2022-08-02T16:43:42.757Z,50.42
2022-08-02T16:46:09.960Z,50.79
2022-08-02T16:48:36.555Z,51.15
2022-08-02T16:51:02.924Z,51.78
2022-08-02T16:53:36.669Z,51.25
2022-08-02T16:56:03.900Z,51.96
2022-08-02T16:58:30.251Z,51.09
2022-08-02T17:00:56.692Z,51.96
2022-08-02T17:03:24.187Z,52.09
2022-08-02T17:06:00.993Z,52.18
2022-08-02T17:08:31.685Z,51.50
2022-08-02T17:10:58.749Z,52.55
2022-08-02T17:13:30.211Z,52.44
2022-08-02T17:16:17.180Z,52.69
2022-08-02T17:18:43.197Z,52.43
2022-08-02T17:21:15.636Z,51.46
2022-08-02T17:24:05.234Z,51.51
2022-08-02T17:26:31.122Z,51.45
2022-08-02T17:29:15.404Z,50.94
2022-08-02T17:34:31.413Z,51.19
2022-08-02T17:36:57.864Z,50.53
2022-08-02T17:39:24.233Z,50.74
2022-08-02T17:42:00.498Z,50.21
2022-08-02T17:47:13.251Z,49.67
2022-08-02T17:49:43.916Z,50.22
2022-08-02T17:52:50.383Z,49.91
2022-08-02T17:55:03.378Z,49.83
2022-08-02T17:57:55.786Z,49.79
2022-08-02T18:00:16.685Z,49.75
2022-08-02T18:02:43.089Z,49.58
2022-08-02T18:05:19.047Z,49.65
2022-08-02T18:07:52.001Z,48.23
2022-08-02T18:10:21.800Z,48.11
2022-08-02T18:12:49.553Z,47.95
2022-08-02T18:15:15.906Z,48.48
2022-08-02T18:17:42.349Z,47.70
2022-08-02T18:20:11.027Z,48.31
2022-08-02T18:22:37.728Z,47.73
2022-08-02T18:25:09.348Z,47.34
2022-08-02T18:27:52.709Z,47.13
2022-08-02T18:30:27.964Z,46.78
2022-08-02T18:33:54.414Z,46.95
2022-08-02T18:35:42.371Z,46.91
2022-08-02T18:38:11.808Z,46.64
2022-08-02T18:40:38.334Z,46.84
2022-08-02T18:43:06.996Z,46.66
2022-08-02T18:46:01.577Z,46.76
2022-08-02T18:48:20.531Z,46.80
2022-08-02T18:50:48.236Z,47.09
2022-08-02T18:53:16.810Z,47.15
2022-08-02T18:56:04.233Z,47.01
2022-08-02T18:58:30.991Z,46.99
2022-08-02T19:00:57.447Z,46.97
2022-08-02T19:03:25.627Z,47.07
2022-08-02T19:05:54.027Z,46.86
2022-08-02T19:08:20.686Z,46.59
2022-08-02T19:10:53.019Z,46.38
2022-08-02T19:13:19.429Z,46.46
2022-08-02T19:15:46.560Z,46.45
2022-08-02T19:18:14.293Z,46.29
2022-08-02T19:20:40.649Z,47.18
2022-08-02T19:23:15.034Z,47.22
2022-08-02T19:25:45.235Z,47.32
2022-08-02T19:28:16.996Z,47.62
2022-08-02T19:30:52.801Z,46.79
2022-08-02T19:33:24.839Z,46.79
2022-08-02T19:36:06.498Z,46.70
2022-08-02T19:38:32.885Z,46.44
2022-08-02T19:40:59.551Z,46.29
2022-08-02T19:44:25.846Z,46.03
2022-08-02T19:46:15.903Z,45.79
2022-08-02T19:48:42.580Z,45.75
2022-08-02T19:51:10.504Z,45.74
2022-08-02T19:53:47.559Z,45.61
2022-08-02T19:56:20.951Z,45.46
2022-08-02T19:58:48.643Z,45.72
2022-08-02T20:01:17.317Z,45.50
2022-08-02T20:03:52.212Z,45.53
2022-08-02T20:06:19.371Z,45.64
2022-08-02T20:08:53.243Z,45.97
2022-08-02T20:11:36.217Z,46.12
2022-08-02T20:14:04.643Z,46.32
2022-08-02T20:16:32.837Z,46.28
2022-08-02T20:18:59.682Z,46.60
2022-08-02T20:21:36.448Z,46.42
2022-08-02T20:24:06.776Z,46.62
2022-08-02T20:26:33.294Z,46.80
2022-08-02T20:29:02.818Z,48.32
2022-08-02T20:31:29.780Z,48.61
2022-08-02T20:33:56.906Z,48.94
2022-08-02T20:36:23.495Z,48.24
2022-08-02T20:38:50.160Z,47.63
2022-08-02T20:41:20.226Z,47.20
2022-08-02T20:43:48.337Z,47.10
2022-08-02T20:46:15.107Z,47.02
2022-08-02T20:48:41.491Z,47.09
2022-08-02T20:51:12.182Z,47.12
2022-08-02T20:53:55.088Z,47.03
2022-08-02T20:56:25.148Z,47.19
2022-08-02T20:58:52.634Z,47.32
2022-08-02T21:01:21.470Z,47.15
2022-08-02T21:03:58.801Z,46.91
2022-08-02T21:06:26.290Z,47.02
2022-08-02T21:08:54.645Z,47.03
2022-08-02T21:11:21.046Z,47.05
2022-08-02T21:14:08.914Z,47.26
2022-08-02T21:16:35.891Z,47.21
2022-08-02T21:19:02.459Z,47.25
2022-08-02T21:21:29.623Z,47.22
2022-08-02T21:23:56.387Z,47.24
2022-08-02T21:26:27.960Z,47.50
2022-08-02T21:28:55.211Z,47.68
2022-08-02T21:31:21.591Z,47.72
2022-08-02T21:33:58.869Z,47.92
2022-08-02T21:36:30.469Z,47.75
2022-08-02T21:39:04.721Z,48.00
2022-08-02T21:41:39.176Z,48.15
2022-08-02T21:44:12.481Z,48.49
2022-08-02T21:46:38.838Z,48.53
2022-08-02T21:49:05.269Z,48.69
2022-08-02T21:51:34.361Z,48.29
2022-08-02T21:54:18.375Z,48.42
2022-08-02T21:56:46.363Z,48.80
2022-08-02T21:59:16.173Z,48.71
2022-08-02T22:01:52.640Z,48.63
2022-08-02T22:04:19.605Z,48.74
2022-08-02T22:06:46.834Z,48.67
2022-08-02T22:09:17.445Z,48.39
2022-08-02T22:11:44.349Z,48.49
2022-08-02T22:14:12.618Z,48.63
2022-08-02T22:16:39.025Z,48.49
2022-08-02T22:19:06.651Z,48.54
2022-08-02T22:21:37.710Z,48.35
2022-08-02T22:24:29.585Z,48.44
2022-08-02T22:26:56.689Z,48.37
2022-08-02T22:29:23.057Z,48.56
2022-08-02T22:31:49.421Z,48.58
2022-08-02T22:34:36.815Z,48.65
2022-08-02T22:37:07.424Z,48.94
2022-08-02T22:39:34.117Z,48.83
2022-08-02T22:42:05.381Z,48.99
2022-08-02T22:44:33.878Z,49.15
2022-08-02T22:47:07.531Z,49.59
2022-08-02T22:49:51.691Z,49.46
2022-08-02T22:52:22.529Z,49.12
2022-08-02T22:54:49.055Z,49.38
2022-08-02T22:57:17.250Z,49.88
2022-08-02T22:58:50.685Z,49.92
2022-08-02T22:58:51.126Z,51.02
2022-08-02T22:59:57.311Z,50.02
2022-08-02T23:02:25.105Z,49.95
2022-08-02T23:04:51.616Z,49.99
2022-08-02T23:07:17.992Z,50.18
2022-08-02T23:09:44.354Z,50.06
2022-08-02T23:12:10.734Z,49.78
2022-08-02T23:14:37.093Z,50.00
2022-08-02T23:17:22.095Z,50.27
2022-08-02T23:19:51.163Z,50.04
2022-08-02T23:22:18.217Z,50.11
2022-08-02T23:24:45.511Z,50.11
2022-08-02T23:27:11.898Z,50.28
2022-08-02T23:29:38.258Z,50.42
2022-08-02T23:32:04.605Z,50.42
2022-08-02T23:34:32.822Z,50.40
2022-08-02T23:36:59.197Z,50.54
2022-08-02T23:39:25.562Z,50.23
2022-08-02T23:41:54.796Z,50.51
2022-08-02T23:44:21.813Z,50.51
2022-08-02T23:46:48.189Z,50.26
2022-08-02T23:49:14.657Z,50.67
2022-08-02T23:51:41.101Z,50.52
2022-08-02T23:54:07.471Z,50.55
2022-08-02T23:56:33.829Z,50.72
2022-08-02T23:59:00.194Z,50.51
